Waterville, NY

4:14 AM EST on November 23, 2014 (GMT -0500)
Deansboro, NY | Change Station
CLOSE
Current Station
Personal Weather Station
Location: Deansboro, NY
Elevation: 1158 ft
Nearby Weather Stations

Elev 1158 ft 43.01 °N, 75.44 °W | Updated 9 minutes ago

Rain
Rain
38.9 °F
Feels Like 33 °F
N
8.0
Wind Variable Wind from WSW
Gusts 12.0 mph

Today
High -- | Low -- °F
--% Chance of Precip.
Yesterday
High -- | Low -- °F
Precip. -- in
7:03 AM 4:31 PM
New Moon, 1% visible
Pressure 30.06 in
Visibility 6.0 miles
Clouds Overcast 3300 ft
Windchill 33 °F
Dew Point 38 °F
Humidity 95%
Rainfall 0.00 in
Snow Depth Not available.
UV 0.0 out of 12
Pollen .10 out of 12
Air Quality Not available.
Flu Activity Not available.
METAR KRME 230853Z AUTO 08006KT 6SM -RA BR OVC033 04/03 A3005 RMK AO2 SLP178 P0003 60014 T00390033 50001

More Conditions Fewer Conditions

Pressure 30.06 in
Visibility 6.0 miles
Clouds Overcast 3300 ft
Windchill 33 °F
Dew Point 38 °F
Humidity 95%
Rainfall 0.00 in
Snow Depth Not available.
UV 0.0 out of 12
Pollen .10 out of 12
Air Quality Not available.
Flu Activity Not available.
METAR KRME 230853Z AUTO 08006KT 6SM -RA BR OVC033 04/03 A3005 RMK AO2 SLP178 P0003 60014 T00390033 50001

More Conditions Fewer Conditions

10-Day Weather Forecast

Almanac

Astronomy

Nov. 23, 2014 Rise Set
Actual Time
Civil Twilight
Nautical Twilight
Astronomical Twilight
Moon
Length of Visible Light
Length of Day
Tomorrow will be .
, % of the Moon is Illuminated

Today's Extremes

State Highs State Lows

Community

WunderPhotos

Upload Photos

1,773,024 photos uploaded!

WunderBlogs® & News

Nearby

Air Quality

  Air Quality AQ Index Pollutant
Not available.

Snow Depth

Station Depth Elevation

Earthquake Activity

City Distance Mag. Time & Date
Minimum magnitude displayed is 2.5.

Coastal Water Temperatures

Place Temperature

Nearby Weather Stations